Time;durP1;ratioP1;P1;durP2;ratioP2;P2;SDS_P1;SDS_P2;PMS_P1;PMS_P2;Temp;Humidity;BMP_temperature;BMP_pressure;BME280_temperature;BME280_humidity;BME280_pressure;Samples;Min_cycle;Max_cycle;Signal;HPM_P1;HPM_P2
2021/12/18 00:02:00;;;;;;;28.98;9.50;;;6.60;99.90;;;;;;5093805;28;20114;-77
2021/12/18 00:04:26;;;;;;;20.92;9.70;;;6.60;99.90;;;;;;5093719;28;20114;-77
2021/12/18 00:06:52;;;;;;;29.27;11.40;;;7.00;99.90;;;;;;5093408;28;20086;-79
2021/12/18 00:09:18;;;;;;;36.78;14.88;;;6.60;99.90;;;;;;5093584;28;20051;-77
2021/12/18 00:11:45;;;;;;;51.33;17.17;;;6.60;99.90;;;;;;5109508;28;20101;-78
2021/12/18 00:14:11;;;;;;;34.05;12.15;;;6.70;99.90;;;;;;5093651;28;20074;-78
2021/12/18 00:16:37;;;;;;;33.67;12.50;;;6.60;99.90;;;;;;5093596;28;20542;-77
2021/12/18 00:19:03;;;;;;;61.20;15.68;;;6.60;99.90;;;;;;5075464;28;20075;-79
2021/12/18 00:21:28;;;;;;;53.35;14.93;;;6.60;99.90;;;;;;5075095;28;20046;-77
2021/12/18 00:23:54;;;;;;;53.28;16.65;;;6.70;99.90;;;;;;5093265;28;20048;-79
2021/12/18 00:26:21;;;;;;;33.75;13.25;;;7.00;99.90;;;;;;5075468;28;20054;-78
2021/12/18 00:28:47;;;;;;;47.03;15.32;;;7.90;99.90;;;;;;5093444;28;20083;-77
2021/12/18 00:31:13;;;;;;;60.05;15.65;;;7.50;99.90;;;;;;5093347;28;20041;-78
2021/12/18 00:33:39;;;;;;;60.00;15.38;;;6.60;99.90;;;;;;5075508;28;20050;-77
2021/12/18 00:36:06;;;;;;;74.60;20.92;;;7.70;99.90;;;;;;5093235;28;20392;-77
2021/12/18 00:38:31;;;;;;;53.10;15.95;;;6.60;99.90;;;;;;5075352;28;20407;-77
2021/12/18 00:44:03;;;;;;;29.00;11.48;;;8.40;99.90;;;;;;5030678;28;20049;-79
2021/12/18 00:46:34;;;;;;;41.40;14.05;;;6.60;99.90;;;;;;5030851;28;20057;-78
2021/12/18 00:49:00;;;;;;;53.28;16.98;;;6.60;99.90;;;;;;5014179;28;20061;-77
2021/12/18 00:51:26;;;;;;;45.63;14.85;;;7.20;99.90;;;;;;5030775;28;20053;-79
2021/12/18 00:53:51;;;;;;;43.92;15.88;;;7.80;99.90;;;;;;5030787;28;20046;-77
2021/12/18 00:56:17;;;;;;;41.47;14.60;;;7.20;99.90;;;;;;5014140;28;20041;-78
2021/12/18 00:58:43;;;;;;;42.53;16.50;;;6.60;99.90;;;;;;5014553;28;20148;-77
2021/12/18 01:01:10;;;;;;;28.63;12.80;;;6.80;99.90;;;;;;5030713;28;20068;-78
2021/12/18 01:03:39;;;;;;;39.90;14.65;;;6.60;99.90;;;;;;5030704;28;20440;-78
2021/12/18 01:06:04;;;;;;;37.42;15.00;;;6.60;99.90;;;;;;5030654;28;20069;-77
2021/12/18 01:08:30;;;;;;;46.45;15.07;;;6.90;99.90;;;;;;5014374;28;20412;-78
2021/12/18 01:14:23;;;;;;;38.13;13.35;;;7.90;99.90;;;;;;5030582;28;20137;-78
2021/12/18 01:16:47;;;;;;;33.30;11.00;;;6.70;99.90;;;;;;5027570;28;20140;-77
2021/12/18 01:24:47;;;;;;;21.42;8.65;;;8.20;99.90;;;;;;4975160;28;20046;-77
2021/12/18 01:27:13;;;;;;;31.77;11.23;;;6.70;99.90;;;;;;4991096;28;20066;-78
2021/12/18 01:29:39;;;;;;;21.80;9.02;;;6.70;99.90;;;;;;4975167;28;20062;-78
2021/12/18 01:32:06;;;;;;;15.68;6.57;;;7.50;99.90;;;;;;4991140;28;20053;-78
2021/12/18 01:34:31;;;;;;;;;;;6.60;99.90;;;;;;4992945;28;20046;-77
2021/12/18 01:36:57;;;;;;;22.55;7.82;;;7.10;99.90;;;;;;4994575;28;20020;-79
2021/12/18 01:39:23;;;;;;;17.70;6.00;;;6.60;99.90;;;;;;4994691;28;20522;-79
2021/12/18 01:42:12;;;;;;;20.73;6.88;;;6.60;99.90;;;;;;4994491;28;20054;-77
2021/12/18 01:45:10;;;;;;;16.35;7.18;;;7.10;99.90;;;;;;4994465;28;20055;-78
2021/12/18 01:53:07;;;;;;;11.65;4.20;;;7.80;99.90;;;;;;4978167;28;20054;-77
2021/12/18 01:55:35;;;;;;;8.15;3.47;;;6.60;99.90;;;;;;4994279;28;20490;-77
2021/12/18 01:58:01;;;;;;;9.52;3.40;;;7.00;99.90;;;;;;4994298;28;20413;-77
2021/12/18 02:00:30;;;;;;;12.13;3.22;;;6.60;99.90;;;;;;4977916;28;20046;-78
2021/12/18 02:02:57;;;;;;;9.10;3.35;;;6.60;99.90;;;;;;5094544;28;20530;-78
2021/12/18 02:05:23;;;;;;;10.43;3.25;;;7.50;99.90;;;;;;5095884;28;20055;-79
2021/12/18 02:07:49;;;;;;;11.35;4.90;;;6.60;99.90;;;;;;5095952;28;20422;-77
2021/12/18 02:10:22;;;;;;;11.98;4.90;;;7.50;99.90;;;;;;5095843;28;20047;-79
2021/12/18 02:19:35;;;;;;;17.33;4.30;;;7.90;99.90;;;;;;5053256;28;20148;-78
2021/12/18 02:21:17;;;;;;;18.63;3.58;;;6.60;99.90;;;;;;5052988;28;20045;-78
2021/12/18 02:23:44;;;;;;;13.43;3.45;;;6.60;99.90;;;;;;5037248;28;20132;-78
2021/12/18 02:26:11;;;;;;;16.73;3.92;;;7.90;99.90;;;;;;5052965;28;20057;-78
2021/12/18 02:28:37;;;;;;;10.45;4.28;;;7.90;99.90;;;;;;5053151;28;20049;-79
2021/12/18 02:31:03;;;;;;;12.85;4.82;;;7.20;99.90;;;;;;5053070;28;20110;-77
2021/12/18 02:33:29;;;;;;;;;;;7.30;99.90;;;;;;5053409;28;20143;-77
2021/12/18 02:35:57;;;;;;;12.63;5.25;;;6.50;99.90;;;;;;5036529;28;20007;-78
2021/12/18 02:38:29;;;;;;;12.63;5.35;;;6.50;99.90;;;;;;5052827;28;20044;-78
2021/12/18 02:43:26;;;;;;;14.88;5.53;;;6.40;99.90;;;;;;5052869;28;20527;-78
2021/12/18 02:45:55;;;;;;;9.30;4.25;;;6.40;99.90;;;;;;5051649;28;20053;-77
2021/12/18 02:48:21;;;;;;;14.88;5.75;;;6.50;99.90;;;;;;5052766;28;20049;-78
2021/12/18 02:50:47;;;;;;;12.77;4.68;;;6.40;99.90;;;;;;5052606;28;20474;-77
2021/12/18 02:53:13;;;;;;;15.02;4.63;;;6.40;99.90;;;;;;5084585;28;20099;-79
2021/12/18 02:55:38;;;;;;;19.08;5.53;;;6.40;99.90;;;;;;5094829;28;20487;-77
2021/12/18 02:58:04;;;;;;;14.10;5.10;;;8.10;99.90;;;;;;5094996;28;20040;-79
2021/12/18 03:00:30;;;;;;;12.38;5.13;;;6.50;99.90;;;;;;5094886;28;20071;-79
2021/12/18 03:02:57;;;;;;;20.02;7.18;;;6.80;99.90;;;;;;5094787;28;20470;-78
2021/12/18 03:05:32;;;;;;;15.07;6.72;;;6.50;99.90;;;;;;5094603;28;20126;-79
2021/12/18 03:08:07;;;;;;;16.05;6.75;;;6.50;99.90;;;;;;5094925;28;20058;-80
2021/12/18 03:24:34;;;;;;;19.80;9.45;;;8.00;99.90;;;;;;5031995;28;20054;-79
2021/12/18 03:27:00;;;;;;;18.23;8.32;;;6.50;99.90;;;;;;5015464;28;20064;-78
2021/12/18 03:29:26;;;;;;;18.92;9.38;;;6.40;99.90;;;;;;5032059;28;20479;-78
2021/12/18 03:31:52;;;;;;;20.67;10.82;;;7.70;99.90;;;;;;5031945;28;20402;-78
2021/12/18 03:34:17;;;;;;;25.73;10.25;;;7.30;99.90;;;;;;5015674;28;20080;-77
2021/12/18 03:36:43;;;;;;;19.45;10.68;;;7.20;99.90;;;;;;5031761;28;20045;-78
2021/12/18 03:39:10;;;;;;;20.30;9.02;;;6.50;99.90;;;;;;5031746;28;20064;-77
2021/12/18 03:41:35;;;;;;;21.95;9.75;;;6.50;99.90;;;;;;5031624;28;20041;-79
2021/12/18 03:44:01;;;;;;;19.05;8.48;;;7.30;99.90;;;;;;5031760;28;20103;-77
2021/12/18 03:46:27;;;;;;;23.70;10.35;;;6.50;99.90;;;;;;5015485;28;20057;-78
2021/12/18 03:48:52;;;;;;;21.35;9.73;;;6.50;99.90;;;;;;5031694;28;20107;-76
2021/12/18 03:51:18;;;;;;;18.10;9.45;;;6.50;99.90;;;;;;5031621;28;20056;-79
2021/12/18 03:53:45;;;;;;;20.23;9.10;;;7.00;99.90;;;;;;5092558;28;20056;-79
2021/12/18 03:56:11;;;;;;;16.40;9.65;;;6.50;99.90;;;;;;5093803;28;20290;-78
2021/12/18 03:58:36;;;;;;;18.63;10.25;;;6.50;99.90;;;;;;5058847;28;20048;-77
2021/12/18 04:01:02;;;;;;;15.77;7.68;;;6.60;99.90;;;;;;5093840;28;20044;-78
2021/12/18 04:03:28;;;;;;;15.32;5.93;;;8.30;99.90;;;;;;5093842;28;20498;-77
2021/12/18 04:05:54;;;;;;;8.65;2.53;;;6.60;99.90;;;;;;5093589;28;20044;-80
2021/12/18 04:08:20;;;;;;;10.68;2.92;;;8.00;99.90;;;;;;5093567;28;20105;-78
2021/12/18 04:10:46;;;;;;;9.05;2.67;;;6.60;99.90;;;;;;5093625;28;20088;-79
2021/12/18 04:13:12;;;;;;;8.30;2.30;;;6.50;99.90;;;;;;5075852;28;20596;-78
2021/12/18 04:15:39;;;;;;;8.88;3.20;;;6.50;99.90;;;;;;5093646;28;20048;-79
2021/12/18 04:18:05;;;;;;;7.43;2.00;;;7.70;99.90;;;;;;5093404;28;20495;-79
2021/12/18 04:20:30;;;;;;;9.02;2.13;;;7.70;99.90;;;;;;5075412;28;20055;-76
2021/12/18 04:22:56;;;;;;;8.13;2.58;;;7.50;99.90;;;;;;5093529;28;20040;-76
2021/12/18 04:25:22;;;;;;;6.70;2.13;;;8.10;99.90;;;;;;5075246;28;20048;-79
2021/12/18 04:27:48;;;;;;;5.68;1.85;;;6.70;99.90;;;;;;5093739;28;20048;-77
2021/12/18 04:30:14;;;;;;;8.35;1.52;;;6.40;99.90;;;;;;5093509;28;20398;-77
2021/12/18 04:32:40;;;;;;;7.45;2.05;;;7.70;99.90;;;;;;5093401;28;20044;-79
2021/12/18 04:35:06;;;;;;;5.53;1.85;;;7.80;99.90;;;;;;5093249;28;20395;-77
2021/12/18 04:37:32;;;;;;;6.97;1.65;;;6.30;99.90;;;;;;5093188;28;20487;-77
2021/12/18 04:39:58;;;;;;;6.03;2.08;;;6.50;99.90;;;;;;5093090;28;20108;-78
2021/12/18 04:42:23;;;;;;;11.40;2.27;;;6.40;99.90;;;;;;5075372;28;20048;-77
2021/12/18 04:44:49;;;;;;;6.43;1.95;;;6.30;99.90;;;;;;5075447;28;20411;-77
2021/12/18 04:47:15;;;;;;;5.50;2.13;;;6.80;99.90;;;;;;5093331;28;20044;-77
2021/12/18 04:49:41;;;;;;;9.05;2.22;;;6.30;99.90;;;;;;5093216;28;20537;-79
2021/12/18 04:52:07;;;;;;;5.93;1.65;;;6.30;99.90;;;;;;5093093;28;20040;-77
2021/12/18 04:54:33;;;;;;;9.48;2.78;;;7.10;99.90;;;;;;5093042;28;20483;-77
2021/12/18 04:56:59;;;;;;;6.90;1.92;;;6.30;99.90;;;;;;5093175;28;20047;-78
2021/12/18 04:59:26;;;;;;;9.65;3.50;;;6.80;99.90;;;;;;5075297;28;20564;-78
2021/12/18 05:01:52;;;;;;;9.10;2.03;;;7.80;99.90;;;;;;5074974;28;20044;-78
2021/12/18 05:04:19;;;;;;;8.05;2.58;;;6.40;99.90;;;;;;5075331;28;20047;-77
2021/12/18 05:06:47;;;;;;;8.45;3.03;;;7.70;99.90;;;;;;5093030;28;20066;-78
2021/12/18 05:09:14;;;;;;;11.32;2.83;;;6.90;99.90;;;;;;5093942;28;20071;-78
2021/12/18 05:11:42;;;;;;;10.63;2.90;;;6.40;99.90;;;;;;5097156;28;20059;-79
2021/12/18 05:14:08;;;;;;;9.45;3.53;;;7.30;99.90;;;;;;5097031;28;20134;-77
2021/12/18 05:16:34;;;;;;;11.10;3.03;;;7.20;99.90;;;;;;5078875;28;20136;-80
2021/12/18 05:19:00;;;;;;;8.32;2.70;;;7.50;99.90;;;;;;5096874;28;20055;-79
2021/12/18 05:21:26;;;;;;;12.55;2.63;;;7.70;99.90;;;;;;5078175;28;20403;-77
2021/12/18 05:23:52;;;;;;;11.32;2.97;;;7.30;99.90;;;;;;5096734;28;20055;-79
2021/12/18 05:26:18;;;;;;;13.15;3.22;;;7.70;99.90;;;;;;5078618;28;20044;-77
2021/12/18 05:28:44;;;;;;;12.32;3.40;;;7.80;99.90;;;;;;5078699;28;20044;-78
2021/12/18 05:31:13;;;;;;;8.43;2.97;;;6.50;99.90;;;;;;5096691;28;20048;-79
2021/12/18 05:33:39;;;;;;;11.13;3.15;;;6.30;99.90;;;;;;5096665;28;20058;-77
2021/12/18 05:36:24;;;;;;;13.63;4.30;;;6.90;99.90;;;;;;5096494;28;20047;-78
2021/12/18 05:38:49;;;;;;;9.95;2.97;;;6.30;99.90;;;;;;5078198;28;20392;-78
2021/12/18 05:41:15;;;;;;;7.10;3.28;;;6.70;99.90;;;;;;5096547;28;20043;-78
2021/12/18 05:43:41;;;;;;;10.30;3.20;;;6.40;99.90;;;;;;5096509;28;20044;-78
2021/12/18 05:46:06;;;;;;;8.30;3.38;;;6.40;99.90;;;;;;5096458;28;20044;-77
2021/12/18 05:48:32;;;;;;;8.10;3.33;;;8.10;99.90;;;;;;5078368;28;20052;-77
2021/12/18 05:50:57;;;;;;;9.30;2.93;;;6.60;99.90;;;;;;5096228;28;20361;-79
2021/12/18 05:53:23;;;;;;;9.60;3.47;;;6.40;99.90;;;;;;5078073;28;20285;-78
2021/12/18 05:55:49;;;;;;;12.07;3.92;;;6.40;99.90;;;;;;5096197;28;20047;-78
2021/12/18 05:58:15;;;;;;;7.55;2.72;;;6.40;99.90;;;;;;5096248;28;20126;-77
2021/12/18 06:00:41;;;;;;;12.30;3.60;;;6.40;99.90;;;;;;5077645;28;20127;-77
2021/12/18 06:03:06;;;;;;;13.80;4.20;;;6.40;99.90;;;;;;5078187;28;20048;-78
2021/12/18 06:05:32;;;;;;;10.85;3.17;;;6.40;99.90;;;;;;5095853;28;20048;-78
2021/12/18 06:07:58;;;;;;;7.03;3.00;;;6.50;99.90;;;;;;5095903;28;20562;-78
2021/12/18 06:10:29;;;;;;;10.38;3.22;;;6.90;99.90;;;;;;5095542;28;20052;-79
2021/12/18 06:12:57;;;;;;;8.27;3.55;;;7.70;99.90;;;;;;5095922;28;20052;-79
2021/12/18 06:15:23;;;;;;;9.00;3.85;;;7.10;99.90;;;;;;5095881;28;20388;-78
2021/12/18 06:17:49;;;;;;;6.97;2.78;;;6.50;99.90;;;;;;5077945;28;20056;-77
2021/12/18 06:20:15;;;;;;;13.65;3.55;;;6.50;99.90;;;;;;5095487;28;20547;-77
2021/12/18 06:22:41;;;;;;;6.82;2.63;;;7.00;99.90;;;;;;5095592;28;20077;-79
2021/12/18 06:25:07;;;;;;;8.85;3.25;;;6.60;99.90;;;;;;5077614;28;20048;-78
2021/12/18 06:27:33;;;;;;;9.80;3.55;;;6.60;99.90;;;;;;5077475;28;20044;-77
2021/12/18 06:30:01;;;;;;;9.52;3.00;;;6.60;99.90;;;;;;5095608;28;20044;-78
2021/12/18 06:32:27;;;;;;;8.88;3.13;;;6.60;99.90;;;;;;5095539;28;20055;-78
2021/12/18 06:34:52;;;;;;;8.55;2.92;;;6.60;99.90;;;;;;5077592;28;20048;-78
2021/12/18 06:37:18;;;;;;;8.23;3.00;;;7.40;99.90;;;;;;5095246;28;20043;-78
2021/12/18 06:39:44;;;;;;;9.30;3.20;;;6.70;99.90;;;;;;5060537;28;20102;-78
2021/12/18 06:42:10;;;;;;;11.88;3.75;;;6.70;99.90;;;;;;5095438;28;20048;-78
2021/12/18 06:44:35;;;;;;;9.43;3.28;;;7.50;99.90;;;;;;5095343;28;20079;-78
2021/12/18 06:47:01;;;;;;;8.13;3.13;;;6.70;99.90;;;;;;5076954;28;20177;-77
2021/12/18 06:49:27;;;;;;;9.57;3.15;;;6.70;99.90;;;;;;5095028;28;20460;-78
2021/12/18 06:51:52;;;;;;;8.73;3.20;;;6.70;99.90;;;;;;5094947;28;20055;-77
2021/12/18 06:54:18;;;;;;;8.23;3.70;;;6.80;99.90;;;;;;5094934;28;20282;-77
2021/12/18 06:56:44;;;;;;;8.98;3.63;;;7.60;99.90;;;;;;5077218;28;20359;-79
2021/12/18 06:59:09;;;;;;;8.35;3.35;;;8.10;99.90;;;;;;5095037;28;20051;-78
2021/12/18 07:01:36;;;;;;;11.00;3.10;;;7.10;99.90;;;;;;5094958;28;20044;-76
2021/12/18 07:04:01;;;;;;;;;;;6.80;99.90;;;;;;5095302;28;20044;-78
2021/12/18 07:06:28;;;;;;;10.38;4.00;;;6.80;99.90;;;;;;5076868;28;19927;-79
2021/12/18 07:08:54;;;;;;;10.02;3.75;;;6.80;99.90;;;;;;5076451;28;20044;-77
2021/12/18 07:11:20;;;;;;;7.53;3.47;;;7.00;99.90;;;;;;5094475;28;20077;-77
2021/12/18 07:13:46;;;;;;;9.75;3.33;;;6.80;99.90;;;;;;5075703;28;20051;-79
2021/12/18 07:16:11;;;;;;;9.13;4.35;;;6.80;99.90;;;;;;5094563;28;20388;-78
2021/12/18 07:18:37;;;;;;;10.43;5.27;;;7.90;99.90;;;;;;5094516;28;20044;-79
2021/12/18 07:21:03;;;;;;;10.52;3.88;;;6.90;99.90;;;;;;5094270;28;20348;-79
2021/12/18 07:23:29;;;;;;;21.17;4.53;;;7.40;99.90;;;;;;5094362;28;20047;-77
2021/12/18 07:25:54;;;;;;;11.52;5.22;;;7.40;99.90;;;;;;5094197;28;20087;-78
2021/12/18 07:28:20;;;;;;;15.20;5.60;;;8.40;99.90;;;;;;5094548;28;20083;-77
2021/12/18 07:30:46;;;;;;;13.40;5.97;;;7.30;99.90;;;;;;5076609;28;20067;-78
2021/12/18 07:33:11;;;;;;;12.98;5.07;;;8.40;99.90;;;;;;5075522;28;20064;-79
2021/12/18 07:35:41;;;;;;;16.83;5.80;;;6.90;99.90;;;;;;5094231;28;20406;-78
2021/12/18 07:38:07;;;;;;;17.08;5.80;;;7.50;99.90;;;;;;5075989;28;20044;-78
2021/12/18 07:40:34;;;;;;;13.27;6.13;;;8.00;99.90;;;;;;5093953;28;20100;-78
2021/12/18 07:43:00;;;;;;;22.13;6.50;;;7.10;99.90;;;;;;5076315;28;20054;-81
2021/12/18 07:45:26;;;;;;;15.95;6.50;;;8.40;99.90;;;;;;5094196;28;20109;-83
2021/12/18 07:47:51;;;;;;;15.98;6.47;;;7.70;99.90;;;;;;5076037;28;20044;-80
2021/12/18 07:50:20;;;;;;;16.58;5.78;;;7.10;99.90;;;;;;5075799;28;20089;-79
2021/12/18 07:52:50;;;;;;;16.75;6.88;;;8.40;99.90;;;;;;5093792;28;20088;-82
2021/12/18 07:55:17;;;;;;;15.80;6.32;;;8.00;99.90;;;;;;5058852;28;20048;-80
2021/12/18 07:57:43;;;;;;;14.88;6.10;;;7.00;99.90;;;;;;5094032;28;20514;-82
2021/12/18 08:00:12;;;;;;;15.65;6.43;;;7.30;99.90;;;;;;5093918;28;20135;-82
2021/12/18 08:02:39;;;;;;;14.73;6.47;;;7.00;99.90;;;;;;5093745;28;20048;-80
2021/12/18 08:05:06;;;;;;;18.05;6.85;;;7.00;99.90;;;;;;5093737;28;20044;-82
2021/12/18 08:07:32;;;;;;;21.15;7.53;;;7.10;99.90;;;;;;5093509;28;20407;-82
2021/12/18 08:09:57;;;;;;;19.02;7.88;;;7.10;99.90;;;;;;5075562;28;20052;-80
2021/12/18 08:12:23;;;;;;;13.05;6.75;;;7.40;99.90;;;;;;5093442;28;20419;-80
2021/12/18 08:14:49;;;;;;;17.25;6.80;;;8.60;99.90;;;;;;5075851;28;20052;-79
2021/12/18 08:17:14;;;;;;;12.88;7.05;;;7.10;99.90;;;;;;5109741;28;20127;-80
2021/12/18 08:19:40;;;;;;;16.02;7.45;;;7.10;99.90;;;;;;5093449;28;20054;-81
2021/12/18 08:22:06;;;;;;;17.48;6.35;;;7.20;99.90;;;;;;5093270;28;20048;-79
2021/12/18 08:24:32;;;;;;;18.73;8.00;;;8.90;99.90;;;;;;5075628;28;20055;-80
2021/12/18 08:26:58;;;;;;;16.85;7.40;;;7.20;99.90;;;;;;5075260;28;20048;-80
2021/12/18 08:29:24;;;;;;;15.82;7.50;;;8.50;99.90;;;;;;5075745;28;20044;-79
2021/12/18 08:31:51;;;;;;;21.98;8.52;;;7.20;99.90;;;;;;5093256;28;20048;-79
2021/12/18 08:34:19;;;;;;;15.15;8.48;;;7.30;99.90;;;;;;5093415;28;20052;-80
2021/12/18 08:36:45;;;;;;;19.10;8.15;;;7.30;99.90;;;;;;5093250;28;20407;-81
2021/12/18 08:39:11;;;;;;;16.25;8.00;;;7.60;99.90;;;;;;5075418;28;20048;-81
2021/12/18 08:41:38;;;;;;;23.58;8.57;;;7.30;99.90;;;;;;5093137;28;20075;-79
2021/12/18 08:44:04;;;;;;;16.83;8.10;;;7.30;99.90;;;;;;5075784;28;20396;-81
2021/12/18 08:46:30;;;;;;;18.30;8.30;;;7.30;99.90;;;;;;5097618;28;20047;-80
2021/12/18 08:48:55;;;;;;;18.25;9.15;;;8.60;99.90;;;;;;5097538;28;20044;-80
2021/12/18 08:51:21;;;;;;;17.85;8.38;;;7.40;99.90;;;;;;5079537;28;20055;-80
2021/12/18 08:53:47;;;;;;;21.73;8.82;;;7.40;99.90;;;;;;5097451;28;20043;-80
2021/12/18 08:56:12;;;;;;;20.98;8.18;;;7.70;99.90;;;;;;5097226;28;20040;-80
2021/12/18 08:58:38;;;;;;;16.00;8.55;;;7.40;99.90;;;;;;5097517;28;20458;-79
2021/12/18 09:01:04;;;;;;;18.83;7.65;;;8.20;99.90;;;;;;5097258;28;20116;-80
2021/12/18 09:03:30;;;;;;;13.07;6.95;;;7.40;99.90;;;;;;5097304;28;20040;-82
2021/12/18 09:05:56;;;;;;;17.92;7.32;;;7.50;99.90;;;;;;5097146;28;20036;-79
2021/12/18 09:08:22;;;;;;;13.35;5.90;;;7.50;99.90;;;;;;5097090;28;20044;-80
2021/12/18 09:10:48;;;;;;;17.55;7.03;;;8.60;99.90;;;;;;5078555;28;20511;-79
2021/12/18 09:13:14;;;;;;;15.00;6.55;;;7.60;99.90;;;;;;5097133;28;20052;-80
2021/12/18 09:15:39;;;;;;;13.07;5.47;;;7.50;99.90;;;;;;5078947;28;20185;-79
2021/12/18 09:18:05;;;;;;;12.23;4.50;;;7.50;99.90;;;;;;5097004;28;20403;-82
2021/12/18 09:20:32;;;;;;;7.43;3.17;;;7.60;99.90;;;;;;5096863;28;20102;-78
2021/12/18 09:23:00;;;;;;;10.75;3.97;;;7.60;99.90;;;;;;5096792;28;20140;-80
2021/12/18 09:25:26;;;;;;;10.07;3.10;;;7.50;99.90;;;;;;5078706;28;20052;-81
2021/12/18 09:27:51;;;;;;;10.60;2.60;;;7.60;99.90;;;;;;5078821;28;20052;-80
2021/12/18 09:30:17;;;;;;;12.32;2.95;;;8.60;99.90;;;;;;5078604;28;20048;-82
2021/12/18 09:32:44;;;;;;;6.45;2.50;;;8.10;99.90;;;;;;5096710;28;20048;-81
2021/12/18 09:35:11;;;;;;;14.75;3.13;;;7.60;99.90;;;;;;5096630;28;20541;-79
2021/12/18 09:37:37;;;;;;;9.02;2.45;;;8.40;99.90;;;;;;5096463;28;20052;-80
2021/12/18 09:40:05;;;;;;;10.18;2.75;;;7.60;99.90;;;;;;5096357;28;20054;-79
2021/12/18 09:42:31;;;;;;;6.03;2.22;;;7.70;99.90;;;;;;5096227;28;20160;-80
2021/12/18 09:44:57;;;;;;;5.72;1.95;;;8.90;99.90;;;;;;5096546;28;20078;-79
2021/12/18 09:47:22;;;;;;;9.70;2.55;;;9.50;99.90;;;;;;5096471;28;20044;-80
2021/12/18 09:49:49;;;;;;;8.75;3.03;;;8.50;99.90;;;;;;5096380;28;20075;-80
2021/12/18 09:52:16;;;;;;;9.00;3.05;;;8.60;99.90;;;;;;5078137;28;20097;-80
2021/12/18 09:54:42;;;;;;;12.95;2.20;;;8.80;99.90;;;;;;5095708;28;20040;-80
2021/12/18 09:57:08;;;;;;;4.20;1.83;;;8.70;99.90;;;;;;5096229;28;20040;-79
2021/12/18 09:59:36;;;;;;;5.97;2.08;;;7.80;99.90;;;;;;5078327;28;20043;-79
2021/12/18 10:02:02;;;;;;;4.50;1.58;;;8.90;99.90;;;;;;5096032;28;20047;-81
2021/12/18 10:04:34;;;;;;;6.70;1.77;;;7.80;99.90;;;;;;5096116;28;20145;-80
2021/12/18 10:07:13;;;;;;;6.53;2.03;;;7.80;99.90;;;;;;5095946;28;20051;-79
2021/12/18 10:09:38;;;;;;;5.57;2.08;;;7.90;99.90;;;;;;5096297;28;20543;-80
2021/12/18 10:12:23;;;;;;;7.30;2.33;;;8.10;99.90;;;;;;5095725;28;20165;-79
2021/12/18 10:14:54;;;;;;;5.00;1.90;;;7.90;99.90;;;;;;5078029;28;20055;-80
2021/12/18 10:17:30;;;;;;;9.60;2.08;;;8.50;99.90;;;;;;5095769;28;20047;-79
2021/12/18 10:20:21;;;;;;;8.20;2.78;;;7.90;99.90;;;;;;5095608;28;20483;-80
2021/12/18 10:22:51;;;;;;;6.93;2.78;;;8.00;99.90;;;;;;5077724;28;20485;-80
2021/12/18 10:25:29;;;;;;;5.40;2.47;;;8.00;99.90;;;;;;5077563;28;20043;-78
2021/12/18 10:28:02;;;;;;;11.00;3.22;;;8.00;99.90;;;;;;5095521;28;20044;-83
2021/12/18 10:30:28;;;;;;;6.70;2.60;;;8.00;99.90;;;;;;5077410;28;20055;-81
2021/12/18 10:32:57;;;;;;;12.88;2.45;;;8.00;99.90;;;;;;5095428;28;20048;-80
2021/12/18 10:35:38;;;;;;;6.68;2.10;;;8.10;99.90;;;;;;5095348;28;20555;-80
2021/12/18 10:38:03;;;;;;;8.93;3.35;;;8.10;99.90;;;;;;5095409;28;20043;-80
2021/12/18 10:40:43;;;;;;;8.50;2.70;;;8.40;99.90;;;;;;5095319;28;20044;-80
2021/12/18 10:43:09;;;;;;;10.90;2.83;;;8.10;99.90;;;;;;5095164;28;20522;-79
2021/12/18 10:45:35;;;;;;;6.93;2.22;;;8.20;99.90;;;;;;5095179;28;20554;-79
2021/12/18 10:48:01;;;;;;;;;;;9.60;99.90;;;;;;5095738;28;20407;-80
2021/12/18 10:50:40;;;;;;;11.38;3.28;;;8.20;99.90;;;;;;5094320;28;19920;-81
2021/12/18 10:53:15;;;;;;;6.47;2.22;;;8.20;99.90;;;;;;5078747;28;20048;-82
2021/12/18 10:55:55;;;;;;;14.40;2.40;;;8.20;99.90;;;;;;5094911;28;20050;-80
2021/12/18 10:58:35;;;;;;;4.95;2.22;;;8.20;99.90;;;;;;5095158;28;20043;-80
2021/12/18 11:01:13;;;;;;;7.45;2.40;;;8.70;99.90;;;;;;5094893;28;20047;-80
2021/12/18 11:03:47;;;;;;;10.13;2.30;;;8.20;99.90;;;;;;5094899;28;20515;-80
2021/12/18 11:06:22;;;;;;;6.07;2.67;;;8.30;99.90;;;;;;5094296;28;20075;-82
2021/12/18 11:08:53;;;;;;;9.00;2.30;;;8.30;99.90;;;;;;5076854;28;20094;-80
2021/12/18 11:14:26;;;;;;;16.35;2.72;;;8.30;99.90;;;;;;5052119;28;20063;-80
2021/12/18 11:16:55;;;;;;;9.73;2.53;;;8.30;99.90;;;;;;5052163;28;20110;-79
2021/12/18 11:19:23;;;;;;;6.80;2.30;;;9.40;99.90;;;;;;5052098;28;20053;-80
2021/12/18 11:21:53;;;;;;;9.15;2.55;;;8.30;99.90;;;;;;5035370;28;20132;-80
2021/12/18 11:24:28;;;;;;;10.15;2.60;;;8.90;99.90;;;;;;5051999;28;20056;-81
2021/12/18 11:26:57;;;;;;;8.23;2.22;;;8.30;99.90;;;;;;5051899;28;20052;-80
2021/12/18 11:29:28;;;;;;;7.35;2.33;;;8.60;99.90;;;;;;5051901;28;20095;-82
2021/12/18 11:31:54;;;;;;;8.15;2.55;;;9.00;99.90;;;;;;5051896;28;20060;-79
2021/12/18 11:34:20;;;;;;;6.70;1.77;;;10.00;99.90;;;;;;5035172;28;20095;-82
2021/12/18 11:36:48;;;;;;;4.75;1.85;;;8.40;99.90;;;;;;5051913;28;20049;-80
2021/12/18 11:39:17;;;;;;;11.10;2.63;;;8.50;99.90;;;;;;5051723;28;20061;-81
2021/12/18 11:41:47;;;;;;;9.18;3.35;;;8.40;99.90;;;;;;5051735;28;20040;-80
2021/12/18 11:44:34;;;;;;;6.65;2.03;;;9.20;99.90;;;;;;5051615;28;20628;-79
2021/12/18 11:47:22;;;;;;;11.15;3.22;;;8.90;99.90;;;;;;5035316;28;20053;-79
2021/12/18 11:49:48;;;;;;;5.55;2.83;;;8.50;99.90;;;;;;5051609;28;20554;-79
2021/12/18 11:52:15;;;;;;;7.10;2.70;;;9.50;99.90;;;;;;5091000;28;20051;-80
2021/12/18 11:54:52;;;;;;;;;;;9.80;99.90;;;;;;5094256;28;20039;-80
2021/12/18 11:57:40;;;;;;;9.73;3.00;;;8.40;99.90;;;;;;5075780;28;20382;-80
2021/12/18 12:00:34;;;;;;;8.52;3.03;;;8.40;99.90;;;;;;5093788;28;20129;-79
2021/12/18 12:03:00;;;;;;;6.55;1.98;;;8.40;99.90;;;;;;5093710;28;20055;-80
2021/12/18 12:05:45;;;;;;;7.22;2.50;;;9.90;99.90;;;;;;5093923;28;20121;-79
2021/12/18 12:08:35;;;;;;;7.03;2.60;;;9.50;99.90;;;;;;5093827;28;20105;-80
2021/12/18 12:11:17;;;;;;;7.03;1.88;;;9.40;99.90;;;;;;5093647;28;20075;-79
2021/12/18 12:14:03;;;;;;;7.20;1.98;;;8.40;99.90;;;;;;5053233;28;20053;-80
2021/12/18 12:16:44;;;;;;;5.25;2.42;;;8.40;99.90;;;;;;5053487;28;20172;-80
2021/12/18 12:19:43;;;;;;;7.50;2.45;;;8.50;99.90;;;;;;5052117;28;20120;-80
2021/12/18 12:22:28;;;;;;;8.52;2.83;;;8.50;99.90;;;;;;5011186;28;20054;-80
2021/12/18 12:24:59;;;;;;;5.50;2.85;;;8.50;99.90;;;;;;5011469;28;20501;-80
2021/12/18 12:27:34;;;;;;;10.98;3.30;;;8.50;99.90;;;;;;5011320;28;20053;-79
2021/12/18 12:30:03;;;;;;;10.57;2.47;;;8.50;99.90;;;;;;5011460;28;20053;-78
2021/12/18 12:32:30;;;;;;;7.82;2.40;;;8.50;99.90;;;;;;5011301;28;20532;-80
2021/12/18 12:35:10;;;;;;;5.47;2.10;;;9.50;99.90;;;;;;5011439;28;20419;-79
2021/12/18 12:37:46;;;;;;;11.10;2.38;;;8.80;99.90;;;;;;4994595;28;20401;-81
2021/12/18 12:40:20;;;;;;;8.32;2.33;;;8.50;99.90;;;;;;5011185;28;20053;-80
2021/12/18 12:43:15;;;;;;;6.18;1.70;;;8.50;99.90;;;;;;5011278;28;20057;-80
2021/12/18 12:45:44;;;;;;;7.13;2.58;;;8.50;99.90;;;;;;5011219;28;20121;-81
2021/12/18 12:48:10;;;;;;;6.72;2.00;;;9.80;99.90;;;;;;5011248;28;20064;-80
2021/12/18 12:50:36;;;;;;;7.75;2.60;;;8.60;99.90;;;;;;5011129;28;20475;-80
2021/12/18 12:53:09;;;;;;;10.75;2.47;;;8.50;99.90;;;;;;5011185;28;20058;-79
2021/12/18 12:55:46;;;;;;;8.15;2.42;;;8.50;99.90;;;;;;5011115;28;20050;-81
2021/12/18 12:58:23;;;;;;;4.78;1.70;;;8.50;99.90;;;;;;5026352;28;20570;-80
2021/12/18 13:00:59;;;;;;;10.48;2.63;;;8.50;99.90;;;;;;5052915;28;20408;-79
2021/12/18 13:03:29;;;;;;;7.97;2.60;;;8.50;99.90;;;;;;5052808;28;20092;-80
2021/12/18 13:05:57;;;;;;;5.00;2.38;;;8.70;99.90;;;;;;5051767;28;20128;-80
2021/12/18 13:08:26;;;;;;;7.30;2.00;;;8.60;99.90;;;;;;5052808;28;20060;-82
2021/12/18 13:10:54;;;;;;;7.90;2.15;;;8.60;99.90;;;;;;5052946;28;20044;-80
2021/12/18 13:13:23;;;;;;;7.97;3.20;;;8.60;99.90;;;;;;5071443;28;20135;-80
2021/12/18 13:15:54;;;;;;;9.10;2.53;;;8.50;99.90;;;;;;5072718;28;20052;-80
2021/12/18 13:18:36;;;;;;;9.95;3.42;;;8.60;99.90;;;;;;5072749;28;20076;-81
2021/12/18 13:21:09;;;;;;;10.23;3.65;;;8.60;99.90;;;;;;5072747;28;20040;-80
2021/12/18 13:23:40;;;;;;;8.13;2.65;;;8.80;99.90;;;;;;5072824;28;20048;-80
2021/12/18 13:26:12;;;;;;;8.10;2.35;;;8.60;99.90;;;;;;5071543;28;20044;-79
2021/12/18 13:28:58;;;;;;;7.57;3.50;;;8.90;99.90;;;;;;5071623;28;20507;-82
2021/12/18 13:31:33;;;;;;;8.15;3.42;;;8.80;99.90;;;;;;5075294;28;20083;-82
2021/12/18 13:34:08;;;;;;;13.77;4.15;;;8.60;99.90;;;;;;5076472;28;20040;-80
2021/12/18 13:36:45;;;;;;;10.50;3.50;;;9.70;99.90;;;;;;5076247;28;20056;-80
2021/12/18 13:39:23;;;;;;;8.88;4.30;;;9.70;99.90;;;;;;5076234;28;20048;-80
2021/12/18 13:42:06;;;;;;;11.27;4.32;;;8.50;99.90;;;;;;5076038;28;20048;-80